createdAt,value
2018-06-25T00:01:47.464Z,65.66
2018-06-25T00:04:13.542Z,66.21
2018-06-25T00:06:39.614Z,66.49
2018-06-25T00:09:05.646Z,66.02
2018-06-25T00:11:31.643Z,66.43
2018-06-25T00:13:57.638Z,66.41
2018-06-25T00:16:23.665Z,67.22
2018-06-25T00:18:49.700Z,66.58
2018-06-25T00:21:15.765Z,66.77
2018-06-25T00:23:42.655Z,66.93
2018-06-25T00:26:08.706Z,67.33
2018-06-25T00:28:34.730Z,66.79
2018-06-25T00:31:00.769Z,66.64
2018-06-25T00:33:27.779Z,66.46
2018-06-25T00:35:53.834Z,66.77
2018-06-25T00:38:20.716Z,66.75
2018-06-25T00:40:46.775Z,66.99
2018-06-25T00:43:12.772Z,66.58
2018-06-25T00:45:41.078Z,66.67
2018-06-25T00:48:07.060Z,67.16
2018-06-25T00:50:33.108Z,67.58
2018-06-25T00:52:59.171Z,66.91
2018-06-25T00:55:25.157Z,67.71
2018-06-25T00:57:51.154Z,68.23
2018-06-25T01:00:17.145Z,67.96
2018-06-25T01:02:43.172Z,67.46
2018-06-25T01:05:09.144Z,67.35
2018-06-25T01:07:35.141Z,67.61
2018-06-25T01:10:01.159Z,67.73
2018-06-25T01:12:27.880Z,68.18
2018-06-25T01:14:53.857Z,67.87
2018-06-25T01:17:19.882Z,67.81
2018-06-25T01:19:45.870Z,67.79
2018-06-25T01:22:13.920Z,68.63
2018-06-25T01:24:39.952Z,68.88
2018-06-25T01:27:06.007Z,67.86
2018-06-25T01:29:32.019Z,68.05
2018-06-25T01:31:58.059Z,68.88
2018-06-25T01:34:24.128Z,68.40
2018-06-25T01:36:51.070Z,67.54
2018-06-25T01:39:17.169Z,67.58
2018-06-25T01:41:43.302Z,67.69
2018-06-25T01:44:10.124Z,67.24
2018-06-25T01:46:36.144Z,66.75
2018-06-25T01:49:02.211Z,66.35
2018-06-25T01:51:28.225Z,66.90
2018-06-25T01:53:54.202Z,67.08
2018-06-25T01:56:20.226Z,67.24
2018-06-25T01:58:46.274Z,67.28
2018-06-25T02:01:12.348Z,67.83
2018-06-25T02:03:38.367Z,67.71
2018-06-25T02:06:04.449Z,68.80
2018-06-25T02:08:30.494Z,68.61
2018-06-25T02:10:56.600Z,68.73
2018-06-25T02:13:22.624Z,68.27
2018-06-25T02:15:48.664Z,68.31
2018-06-25T02:18:14.719Z,68.20
2018-06-25T02:20:40.775Z,67.49
2018-06-25T02:23:06.842Z,67.81
2018-06-25T02:25:32.862Z,68.29
2018-06-25T02:27:58.890Z,68.39
2018-06-25T02:30:24.896Z,68.34
2018-06-25T02:32:50.959Z,68.11
2018-06-25T02:35:17.013Z,68.54
2018-06-25T02:37:43.045Z,68.33
2018-06-25T02:40:09.105Z,67.94
2018-06-25T02:42:35.094Z,67.79
2018-06-25T02:45:01.128Z,67.74
2018-06-25T02:47:27.119Z,68.14
2018-06-25T02:49:53.169Z,68.40
2018-06-25T02:52:19.193Z,68.57
2018-06-25T02:54:45.195Z,68.77
2018-06-25T02:57:11.160Z,68.51
2018-06-25T02:59:37.142Z,68.97
2018-06-25T03:02:04.796Z,69.48
2018-06-25T03:04:30.818Z,68.94
2018-06-25T03:06:56.855Z,68.92
2018-06-25T03:09:28.725Z,68.64
2018-06-25T03:11:54.975Z,68.20
2018-06-25T03:14:21.018Z,68.52
2018-06-25T03:16:47.126Z,67.78
2018-06-25T03:19:13.190Z,68.40
2018-06-25T03:21:39.224Z,68.73
2018-06-25T03:24:05.342Z,68.66
2018-06-25T03:26:31.489Z,68.73
2018-06-25T03:28:57.532Z,68.93
2018-06-25T03:39:50.708Z,69.18
2018-06-25T03:42:17.040Z,68.19
2018-06-25T03:44:44.912Z,69.11
2018-06-25T03:50:00.186Z,69.67
2018-06-25T03:54:57.506Z,69.77
2018-06-25T03:57:23.658Z,70.11
2018-06-25T03:59:49.719Z,69.84
2018-06-25T04:02:15.754Z,70.32
2018-06-25T04:04:41.717Z,70.10
2018-06-25T04:07:07.796Z,69.28
2018-06-25T04:09:33.789Z,69.87
2018-06-25T04:11:59.797Z,69.65
2018-06-25T04:14:25.800Z,69.55
2018-06-25T04:16:51.855Z,69.16
2018-06-25T04:19:17.913Z,69.60
2018-06-25T04:21:43.912Z,69.30
2018-06-25T04:24:09.908Z,68.87
2018-06-25T04:26:35.982Z,69.30
2018-06-25T04:29:01.960Z,69.57
2018-06-25T04:31:27.946Z,70.05
2018-06-25T04:33:53.959Z,69.65
2018-06-25T04:36:20.247Z,69.50
2018-06-25T04:38:46.262Z,69.96
2018-06-25T04:41:12.298Z,69.29
2018-06-25T04:43:38.414Z,69.60
2018-06-25T04:46:04.480Z,69.92
2018-06-25T04:48:31.489Z,69.45
2018-06-25T04:50:57.571Z,70.00
2018-06-25T04:53:23.586Z,69.54
2018-06-25T04:55:49.553Z,68.97
2018-06-25T04:58:15.552Z,69.10
2018-06-25T05:00:41.541Z,69.01
2018-06-25T05:03:07.725Z,68.69
2018-06-25T05:05:33.799Z,68.95
2018-06-25T05:11:16.189Z,69.00
2018-06-25T05:16:16.796Z,68.58
2018-06-25T05:18:42.778Z,69.42
2018-06-25T05:21:08.780Z,68.83
2018-06-25T05:23:34.864Z,69.31
2018-06-25T05:26:00.785Z,69.04
2018-06-25T05:28:26.778Z,69.28
2018-06-25T05:30:52.822Z,68.77
2018-06-25T05:33:18.849Z,68.52
2018-06-25T05:35:44.829Z,68.86
2018-06-25T05:38:10.834Z,67.36
2018-06-25T05:40:36.877Z,68.58
2018-06-25T05:43:02.868Z,68.09
2018-06-25T05:45:28.904Z,68.69
2018-06-25T05:47:54.893Z,69.62
2018-06-25T05:50:20.943Z,68.89
2018-06-25T05:52:46.945Z,69.51
2018-06-25T05:55:13.598Z,69.09
2018-06-25T05:57:39.591Z,69.84
2018-06-25T06:00:05.618Z,69.70
2018-06-25T06:02:31.630Z,68.39
2018-06-25T06:04:57.645Z,67.67
2018-06-25T06:07:23.711Z,67.98
2018-06-25T06:09:49.775Z,67.81
2018-06-25T06:12:15.832Z,68.33
2018-06-25T06:14:42.000Z,67.76
2018-06-25T06:17:07.938Z,66.34
2018-06-25T06:19:33.912Z,67.30
2018-06-25T06:24:32.813Z,66.71
2018-06-25T06:26:58.804Z,65.22
2018-06-25T06:29:24.797Z,64.61
2018-06-25T06:31:50.841Z,63.93
2018-06-25T06:34:16.839Z,63.26
2018-06-25T06:36:42.768Z,63.62
2018-06-25T06:39:08.740Z,64.00
2018-06-25T06:41:34.722Z,62.10
2018-06-25T06:44:00.791Z,58.98
2018-06-25T06:46:26.775Z,58.98
2018-06-25T06:48:52.777Z,57.54
2018-06-25T06:51:18.799Z,58.38
2018-06-25T06:53:44.834Z,58.10
2018-06-25T06:56:10.826Z,58.79
2018-06-25T06:58:36.835Z,59.45
2018-06-25T07:01:02.797Z,60.03
2018-06-25T07:03:28.827Z,60.13
2018-06-25T07:05:54.892Z,60.23
2018-06-25T07:08:20.872Z,60.76
2018-06-25T07:10:46.919Z,61.49
2018-06-25T07:13:12.948Z,61.38
2018-06-25T07:15:38.968Z,62.09
2018-06-25T07:18:04.921Z,58.31
2018-06-25T07:20:30.981Z,56.28
2018-06-25T07:22:56.937Z,55.55
2018-06-25T07:25:22.910Z,55.91
2018-06-25T07:27:48.910Z,57.24
2018-06-25T07:30:15.019Z,57.34
2018-06-25T07:32:41.037Z,56.99
2018-06-25T07:35:07.041Z,57.37
2018-06-25T07:37:33.031Z,58.19
2018-06-25T07:39:59.127Z,57.77
2018-06-25T07:42:25.154Z,57.95
2018-06-25T07:44:51.276Z,58.28
2018-06-25T07:47:17.400Z,58.72
2018-06-25T07:49:43.365Z,59.32
2018-06-25T07:52:09.349Z,58.72
2018-06-25T07:54:35.356Z,59.84
2018-06-25T07:57:02.092Z,59.31
2018-06-25T07:59:28.085Z,59.49
2018-06-25T08:01:54.114Z,60.41
2018-06-25T08:04:20.103Z,59.40
2018-06-25T08:06:46.054Z,60.04
2018-06-25T08:09:12.150Z,60.13
2018-06-25T08:11:38.168Z,60.09
2018-06-25T08:14:04.248Z,60.78
2018-06-25T08:16:30.284Z,60.83
2018-06-25T08:18:56.403Z,61.40
2018-06-25T08:21:22.401Z,60.69
2018-06-25T08:23:48.453Z,60.49
2018-06-25T08:26:14.421Z,60.10
2018-06-25T08:28:40.406Z,59.65
2018-06-25T08:31:06.393Z,60.32
2018-06-25T08:33:32.379Z,59.52
2018-06-25T08:35:58.408Z,59.82
2018-06-25T08:38:24.470Z,59.49
2018-06-25T08:40:50.512Z,59.44
2018-06-25T08:43:16.568Z,60.16
2018-06-25T08:45:42.602Z,60.18
2018-06-25T08:48:08.622Z,60.13
2018-06-25T08:50:34.658Z,60.77
2018-06-25T08:53:00.638Z,59.78
2018-06-25T08:55:26.588Z,60.11
2018-06-25T08:57:52.615Z,58.93
2018-06-25T09:00:18.635Z,58.25
2018-06-25T09:02:44.728Z,59.57
2018-06-25T09:05:10.726Z,59.23
2018-06-25T09:07:36.710Z,59.26
2018-06-25T09:10:02.754Z,60.15
2018-06-25T09:12:28.761Z,60.42
2018-06-25T09:14:54.763Z,60.32
2018-06-25T09:17:20.775Z,60.12
2018-06-25T09:19:46.769Z,60.12
2018-06-25T09:22:12.818Z,60.93
2018-06-25T09:24:38.746Z,61.12
2018-06-25T09:27:04.712Z,60.58
2018-06-25T09:29:30.729Z,61.33
2018-06-25T09:31:56.775Z,61.18
2018-06-25T09:34:22.771Z,60.51
2018-06-25T09:36:48.775Z,60.27
2018-06-25T09:39:14.778Z,60.39
2018-06-25T09:41:41.463Z,60.45
2018-06-25T09:44:07.304Z,59.56
2018-06-25T09:46:33.297Z,60.31
2018-06-25T09:48:59.321Z,60.18
2018-06-25T09:51:25.339Z,60.43
2018-06-25T09:53:51.336Z,60.17
2018-06-25T09:56:17.326Z,59.24
2018-06-25T09:58:43.341Z,58.94
2018-06-25T10:01:09.323Z,59.13
2018-06-25T10:03:35.426Z,59.26
2018-06-25T10:06:01.457Z,59.59
2018-06-25T10:08:27.518Z,60.29
2018-06-25T10:10:53.496Z,59.64
2018-06-25T10:13:19.532Z,59.60
2018-06-25T10:15:45.509Z,59.87
2018-06-25T10:18:11.530Z,59.83
2018-06-25T10:20:37.596Z,59.98
2018-06-25T10:23:03.679Z,60.01
2018-06-25T10:25:29.642Z,59.74
2018-06-25T10:27:55.648Z,60.37
2018-06-25T10:30:22.439Z,60.86
2018-06-25T10:32:48.413Z,61.19
2018-06-25T10:35:14.431Z,60.63
2018-06-25T10:37:40.439Z,59.35
2018-06-25T10:40:06.470Z,59.73
2018-06-25T10:42:32.602Z,59.68
2018-06-25T10:44:58.656Z,59.79
2018-06-25T10:47:24.685Z,59.68
2018-06-25T10:49:50.683Z,60.00
2018-06-25T10:52:16.736Z,58.81
2018-06-25T10:54:42.713Z,57.37
2018-06-25T10:57:08.700Z,58.12
2018-06-25T10:59:34.761Z,57.86
2018-06-25T11:02:00.787Z,56.92
2018-06-25T11:04:26.851Z,57.76
2018-06-25T11:06:52.873Z,57.69
2018-06-25T11:09:18.894Z,57.65
2018-06-25T11:11:44.906Z,57.59
2018-06-25T11:14:11.098Z,57.81
2018-06-25T11:16:37.125Z,58.67
2018-06-25T11:19:03.201Z,57.41
2018-06-25T11:21:29.198Z,57.88
2018-06-25T11:23:55.254Z,58.10
2018-06-25T11:26:21.306Z,56.99
2018-06-25T11:28:47.429Z,56.48
2018-06-25T11:31:13.507Z,56.94
2018-06-25T11:33:39.546Z,57.74
2018-06-25T11:36:05.581Z,57.50
2018-06-25T11:38:31.554Z,57.57
2018-06-25T11:40:57.565Z,58.35
2018-06-25T11:43:23.552Z,57.84
2018-06-25T11:45:49.621Z,57.65
2018-06-25T11:48:15.635Z,57.07
2018-06-25T11:50:41.979Z,57.77
2018-06-25T11:53:07.970Z,57.87
2018-06-25T11:55:33.956Z,57.72
2018-06-25T11:57:59.956Z,56.74
2018-06-25T12:00:25.977Z,57.46
2018-06-25T12:02:52.088Z,56.48
2018-06-25T12:05:17.984Z,56.75
2018-06-25T12:07:43.946Z,57.48
2018-06-25T12:10:09.996Z,56.84
2018-06-25T12:12:36.157Z,56.86
2018-06-25T12:15:02.183Z,56.53
2018-06-25T12:17:28.301Z,57.35
2018-06-25T12:19:54.364Z,56.67
2018-06-25T12:22:20.316Z,54.56
2018-06-25T12:24:46.322Z,54.83
2018-06-25T12:27:12.343Z,54.92
2018-06-25T12:29:38.370Z,55.06
2018-06-25T12:32:04.392Z,53.37
2018-06-25T12:34:30.411Z,53.63
2018-06-25T12:36:56.387Z,55.86
2018-06-25T12:39:22.491Z,54.26
2018-06-25T12:41:48.491Z,53.83
2018-06-25T12:44:14.501Z,53.93
2018-06-25T12:46:40.491Z,53.70
2018-06-25T12:49:06.584Z,52.13
2018-06-25T12:51:32.766Z,51.39
2018-06-25T12:53:58.833Z,50.83
2018-06-25T12:56:24.787Z,52.13
2018-06-25T12:58:50.781Z,51.97
2018-06-25T13:01:16.883Z,52.46
2018-06-25T13:03:42.954Z,53.04
2018-06-25T13:06:08.954Z,53.16
2018-06-25T13:08:35.001Z,52.53
2018-06-25T13:11:01.006Z,52.74
2018-06-25T13:13:27.046Z,53.32
2018-06-25T13:15:53.066Z,52.27
2018-06-25T13:18:19.187Z,52.59
2018-06-25T13:20:45.314Z,51.96
2018-06-25T13:23:11.270Z,52.04
2018-06-25T13:25:37.300Z,52.39
2018-06-25T13:28:03.369Z,51.77
2018-06-25T13:30:29.397Z,51.81
2018-06-25T13:32:55.408Z,51.02
2018-06-25T13:35:21.458Z,51.45
2018-06-25T13:37:47.476Z,52.54
2018-06-25T13:40:14.153Z,51.99
2018-06-25T13:42:40.212Z,51.52
2018-06-25T13:45:07.121Z,50.06
2018-06-25T13:47:33.203Z,50.75
2018-06-25T13:49:59.236Z,50.74
2018-06-25T13:52:25.268Z,51.22
2018-06-25T13:54:51.269Z,51.39
2018-06-25T13:57:17.320Z,51.41
2018-06-25T13:59:43.309Z,51.08
2018-06-25T14:02:09.367Z,51.14
2018-06-25T14:07:07.937Z,51.75
2018-06-25T14:09:33.948Z,51.48
2018-06-25T14:12:00.010Z,50.34
2018-06-25T14:14:26.017Z,50.59
2018-06-25T14:16:52.169Z,50.33
2018-06-25T14:19:18.122Z,49.91
2018-06-25T14:21:44.155Z,48.63
2018-06-25T14:24:10.233Z,47.65
2018-06-25T14:26:36.253Z,47.74
2018-06-25T14:29:02.238Z,47.67
2018-06-25T14:31:28.246Z,47.74
2018-06-25T14:33:54.228Z,48.27
2018-06-25T14:36:20.318Z,49.04
2018-06-25T14:38:46.303Z,48.83
2018-06-25T14:41:12.326Z,48.50
2018-06-25T14:43:38.504Z,48.83
2018-06-25T14:46:04.574Z,48.46
2018-06-25T14:48:30.672Z,49.17
2018-06-25T14:50:56.663Z,48.69
2018-06-25T14:53:22.659Z,47.34
2018-06-25T14:55:48.659Z,47.27
2018-06-25T14:58:14.647Z,46.88
2018-06-25T15:00:40.716Z,46.74
2018-06-25T15:03:06.927Z,45.74
2018-06-25T15:05:32.965Z,46.20
2018-06-25T15:07:58.973Z,46.86
2018-06-25T15:10:24.961Z,47.45
2018-06-25T15:12:50.944Z,47.70
2018-06-25T15:15:16.970Z,47.09
2018-06-25T15:17:42.982Z,46.40
2018-06-25T15:20:09.060Z,47.42
2018-06-25T15:22:35.077Z,47.33
2018-06-25T15:25:01.197Z,47.83
2018-06-25T15:27:27.398Z,47.67
2018-06-25T15:29:53.456Z,48.63
2018-06-25T15:32:19.502Z,48.30
2018-06-25T15:34:47.512Z,48.64
2018-06-25T15:39:50.026Z,48.62
2018-06-25T15:42:16.062Z,49.42
2018-06-25T15:44:42.116Z,48.25
2018-06-25T15:47:09.273Z,50.44
2018-06-25T15:49:41.153Z,49.91
2018-06-25T15:52:09.378Z,51.39
2018-06-25T15:54:35.444Z,49.88
2018-06-25T15:57:01.443Z,50.58
2018-06-25T15:59:27.895Z,49.65
2018-06-25T16:01:53.949Z,49.36
2018-06-25T16:04:19.986Z,49.54
2018-06-25T16:06:46.143Z,48.64
2018-06-25T16:09:12.201Z,48.93
2018-06-25T16:11:38.193Z,47.79
2018-06-25T16:14:04.188Z,48.78
2018-06-25T16:16:30.190Z,50.95
2018-06-25T16:21:28.641Z,53.58
2018-06-25T16:23:54.627Z,52.53
2018-06-25T16:26:20.590Z,55.05
2018-06-25T16:28:46.696Z,50.26
2018-06-25T16:31:12.692Z,53.42
2018-06-25T16:33:38.697Z,52.36
2018-06-25T16:36:05.762Z,52.88
2018-06-25T16:38:31.721Z,53.54
2018-06-25T16:40:57.895Z,53.48
2018-06-25T16:43:23.914Z,53.81
2018-06-25T16:45:50.039Z,53.83
2018-06-25T16:48:16.127Z,53.75
2018-06-25T16:50:42.193Z,52.73
2018-06-25T16:53:08.159Z,53.42
2018-06-25T16:55:34.390Z,53.25
2018-06-25T16:58:00.357Z,52.79
2018-06-25T17:00:26.380Z,55.41
2018-06-25T17:02:53.208Z,52.65
2018-06-25T17:05:19.202Z,54.76
2018-06-25T17:07:45.175Z,54.79
2018-06-25T17:10:11.204Z,55.56
2018-06-25T17:12:37.260Z,55.29
2018-06-25T17:15:03.523Z,54.56
2018-06-25T17:17:29.493Z,55.34
2018-06-25T17:19:55.512Z,56.71
2018-06-25T17:22:22.497Z,56.41
2018-06-25T17:24:48.537Z,56.21
2018-06-25T17:27:14.713Z,57.67
2018-06-25T17:29:40.877Z,57.24
2018-06-25T17:32:06.842Z,58.51
2018-06-25T17:34:32.910Z,60.38
2018-06-25T17:36:58.869Z,58.26
2018-06-25T17:39:25.816Z,60.48
2018-06-25T17:41:52.845Z,60.46
2018-06-25T17:44:19.845Z,57.73
2018-06-25T17:46:45.829Z,59.69
2018-06-25T17:49:11.941Z,57.92
2018-06-25T17:51:37.930Z,58.35
2018-06-25T17:54:03.978Z,57.12
2018-06-25T17:56:29.986Z,58.64
2018-06-25T17:58:56.031Z,59.75
2018-06-25T18:03:54.096Z,59.38
2018-06-25T18:06:20.396Z,59.09
2018-06-25T18:08:46.395Z,55.59
2018-06-25T18:11:12.630Z,58.79
2018-06-25T18:13:38.618Z,56.61
2018-06-25T18:16:04.605Z,57.27
2018-06-25T18:18:30.621Z,59.54
2018-06-25T18:20:56.735Z,57.46
2018-06-25T18:23:22.681Z,58.23
2018-06-25T18:25:48.622Z,57.86
2018-06-25T18:28:14.599Z,60.69
2018-06-25T18:30:40.588Z,61.22
2018-06-25T18:33:06.698Z,60.58
2018-06-25T18:35:32.707Z,59.15
2018-06-25T18:37:58.675Z,59.63
2018-06-25T18:40:24.803Z,61.30
2018-06-25T18:42:50.827Z,61.57
2018-06-25T18:45:17.170Z,61.72
2018-06-25T18:47:43.111Z,59.52
2018-06-25T18:50:09.065Z,60.53
2018-06-25T18:52:35.017Z,60.74
2018-06-25T18:55:00.977Z,61.12
2018-06-25T18:57:26.977Z,61.72
2018-06-25T18:59:52.948Z,60.67
2018-06-25T19:02:19.035Z,60.68
2018-06-25T19:04:45.006Z,61.08
2018-06-25T19:07:11.105Z,60.62
2018-06-25T19:09:37.087Z,61.13
2018-06-25T19:12:03.102Z,60.36
2018-06-25T19:14:29.113Z,61.15
2018-06-25T19:16:55.119Z,60.40
2018-06-25T19:19:21.087Z,61.26
2018-06-25T19:21:47.167Z,60.84
2018-06-25T19:24:13.200Z,61.13
2018-06-25T19:26:39.232Z,61.13
2018-06-25T19:29:05.251Z,61.50
2018-06-25T19:31:31.333Z,60.77
2018-06-25T19:33:57.337Z,61.24
2018-06-25T19:36:23.336Z,61.44
2018-06-25T19:38:49.429Z,60.80
2018-06-25T19:41:15.461Z,60.72
2018-06-25T19:43:41.472Z,60.80
2018-06-25T19:46:07.459Z,60.61
2018-06-25T19:48:34.467Z,60.90
2018-06-25T19:51:00.558Z,61.03
2018-06-25T19:53:27.709Z,60.04
2018-06-25T19:55:53.761Z,60.52
2018-06-25T19:58:19.884Z,60.09
2018-06-25T20:00:45.849Z,60.05
2018-06-25T20:03:12.836Z,60.50
2018-06-25T20:05:39.175Z,58.51
2018-06-25T20:08:05.498Z,60.26
2018-06-25T20:10:33.470Z,61.43
2018-06-25T20:12:59.647Z,60.67
2018-06-25T20:15:25.671Z,57.79
2018-06-25T20:17:51.650Z,60.43
2018-06-25T20:20:17.642Z,59.79
2018-06-25T20:22:43.674Z,58.34
2018-06-25T20:25:09.687Z,59.70
2018-06-25T20:27:35.649Z,58.36
2018-06-25T20:30:04.170Z,59.96
2018-06-25T20:32:31.267Z,60.40
2018-06-25T20:34:58.244Z,59.24
2018-06-25T20:37:24.257Z,59.62
2018-06-25T20:39:50.241Z,58.78
2018-06-25T20:42:16.204Z,60.10
2018-06-25T20:44:42.179Z,59.62
2018-06-25T20:47:08.136Z,60.68
2018-06-25T20:49:34.169Z,60.18
2018-06-25T20:52:00.158Z,60.69
2018-06-25T20:54:26.108Z,60.20
2018-06-25T20:56:52.182Z,58.31
2018-06-25T20:59:18.229Z,57.41
2018-06-25T21:01:45.357Z,57.98
2018-06-25T21:04:11.342Z,57.71
2018-06-25T21:06:38.382Z,58.17
2018-06-25T21:09:04.476Z,57.31
2018-06-25T21:11:30.528Z,57.33
2018-06-25T21:13:56.495Z,57.52
2018-06-25T21:16:22.529Z,57.72
2018-06-25T21:18:48.489Z,58.74
2018-06-25T21:21:14.442Z,58.94
2018-06-25T21:23:40.425Z,58.97
2018-06-25T21:26:06.366Z,59.03
2018-06-25T21:28:32.351Z,59.54
2018-06-25T21:30:58.295Z,59.33
2018-06-25T21:33:24.259Z,59.22
2018-06-25T21:35:50.210Z,59.29
2018-06-25T21:38:16.168Z,60.01
2018-06-25T21:40:42.101Z,59.62
2018-06-25T21:43:08.059Z,59.61
2018-06-25T21:45:34.048Z,59.60
2018-06-25T21:48:00.000Z,59.89
2018-06-25T21:50:25.994Z,60.40
2018-06-25T21:52:51.953Z,59.96
2018-06-25T21:55:17.944Z,60.07
2018-06-25T21:57:43.925Z,60.13
2018-06-25T22:00:09.865Z,61.25
2018-06-25T22:02:35.845Z,61.30
2018-06-25T22:05:01.812Z,61.63
2018-06-25T22:07:27.766Z,61.28
2018-06-25T22:09:53.711Z,61.52
2018-06-25T22:12:19.667Z,61.70
2018-06-25T22:14:45.655Z,61.56
2018-06-25T22:17:11.610Z,61.48
2018-06-25T22:19:37.596Z,62.10
2018-06-25T22:22:03.590Z,62.18
2018-06-25T22:24:29.568Z,61.93
2018-06-25T22:26:55.545Z,62.65
2018-06-25T22:29:21.513Z,62.03
2018-06-25T22:31:47.464Z,62.71
2018-06-25T22:34:13.448Z,62.68
2018-06-25T22:36:39.407Z,62.78
2018-06-25T22:39:05.429Z,62.39
2018-06-25T22:41:31.371Z,62.84
2018-06-25T22:43:57.330Z,62.43
2018-06-25T22:46:23.282Z,62.99
2018-06-25T22:48:49.256Z,62.71
2018-06-25T22:51:15.258Z,62.36
2018-06-25T22:53:41.197Z,62.67
2018-06-25T22:56:07.181Z,63.34
2018-06-25T22:58:33.167Z,63.39
2018-06-25T23:00:59.174Z,62.92
2018-06-25T23:03:25.312Z,62.80
2018-06-25T23:05:51.381Z,63.42
2018-06-25T23:08:17.327Z,63.78
2018-06-25T23:10:43.295Z,63.48
2018-06-25T23:13:09.315Z,63.48
2018-06-25T23:15:35.254Z,63.80
2018-06-25T23:18:01.224Z,63.40
2018-06-25T23:20:27.220Z,64.11
2018-06-25T23:22:53.175Z,63.11
2018-06-25T23:25:19.155Z,64.03
2018-06-25T23:27:45.115Z,63.90
2018-06-25T23:30:11.088Z,63.35
2018-06-25T23:32:37.057Z,63.55
2018-06-25T23:35:03.026Z,63.36
2018-06-25T23:37:28.983Z,63.43
2018-06-25T23:39:54.943Z,64.08
2018-06-25T23:42:20.908Z,63.29
2018-06-25T23:44:46.849Z,63.31
2018-06-25T23:47:12.801Z,63.85
2018-06-25T23:49:38.753Z,63.46
2018-06-25T23:52:04.697Z,63.93
2018-06-25T23:54:30.649Z,62.95
2018-06-25T23:56:56.609Z,63.99
2018-06-25T23:59:22.576Z,64.08
